Kankakee, IL (60901)

8:14 AM CDT on August 27, 2016 (GMT -0500)
Quail hallow | | Change Station

Elev 669 ft 41.16 °N, 87.84 °W | Updated 9 minutes ago

Overcast
Overcast
70.9 °F
Feels Like 70.9 °F
N
0.0
Wind Variable Wind from ENE

Today
High -- | Low -- °F
--% Chance of Precip.
Yesterday
High -- | Low -- °F
Precip. -- in
Pressure 30.11 in
Visibility 10.0 miles
Clouds Overcast 1300 ft
Dew Point 69 °F
Humidity 93%
Rainfall 2.12 in
Snow Depth Not available.
6:13 AM 7:31 PM
Waning Crescent, 24% visible
METAR KIKK 271255Z AUTO 13004KT 10SM VCTS OVC013 22/21 A3011 RMK AO2 LTG DSNT NE AND E T02150211
Pressure 30.11 in
Visibility 10.0 miles
Clouds Overcast 1300 ft
Dew Point 69 °F
Humidity 93%
Rainfall 2.12 in
Snow Depth Not available.
6:13 AM 7:31 PM
Waning Crescent, 24% visible
METAR KIKK 271255Z AUTO 13004KT 10SM VCTS OVC013 22/21 A3011 RMK AO2 LTG DSNT NE AND E T02150211

10-Day Weather Forecast

Almanac

Astronomy

Aug. 27, 2016 Rise Set
Actual Time
Civil Twilight
Nautical Twilight
Astronomical Twilight
Moon
Length of Visible Light
Length of Day
Tomorrow will be .
, % of the Moon is Illuminated

Today's Extremes

State Highs State Lows

Community

WunderPhotos

Upload Photos

1,935,337 photos uploaded!

WunderBlog® & News

Nearby

Air Quality

  Air Quality AQ Index Pollutant
Not available.

Snow Depth

Station Depth Elevation

Earthquake Activity

City Distance Mag. Time & Date
Minimum magnitude displayed is 2.5.

Coastal Water Temperatures

Place Temperature

Stations

Nearby Weather Stations

Station Location Temp. Windchill Dew Point Humidity Wind Precip. Elev Updated Type
                   

Watches & Warnings

There are currently no watches in effect.